createdAt,value
2022-12-12T00:03:46.808Z,28.73
2022-12-12T00:08:49.158Z,27.00
2022-12-12T00:13:51.510Z,31.25
2022-12-12T00:18:53.787Z,30.75
2022-12-12T00:23:56.109Z,25.13
2022-12-12T00:28:58.936Z,28.55
2022-12-12T00:34:00.627Z,30.00
2022-12-12T00:39:02.630Z,26.88
2022-12-12T00:44:05.346Z,25.30
2022-12-12T00:49:07.110Z,30.33
2022-12-12T00:54:09.659Z,30.00
2022-12-12T00:59:11.744Z,22.13
2022-12-12T01:04:13.528Z,23.65
2022-12-12T01:09:15.294Z,27.08
2022-12-12T01:14:17.116Z,26.25
2022-12-12T01:19:18.878Z,31.35
2022-12-12T01:24:20.527Z,25.88
2022-12-12T01:29:22.225Z,27.15
2022-12-12T01:34:23.888Z,26.80
2022-12-12T01:39:25.614Z,29.85
2022-12-12T01:44:46.918Z,26.00
2022-12-12T01:49:58.638Z,29.10
2022-12-12T01:55:04.473Z,27.60
2022-12-12T02:00:10.000Z,26.00
2022-12-12T02:05:48.889Z,24.70
2022-12-12T02:10:51.224Z,30.15
2022-12-12T02:16:17.537Z,24.45
2022-12-12T02:21:35.117Z,29.13
2022-12-12T02:26:47.611Z,29.23
2022-12-12T02:32:03.303Z,30.08
2022-12-12T02:37:13.248Z,25.08
2022-12-12T02:42:22.365Z,27.35
2022-12-12T02:47:31.317Z,27.73
2022-12-12T02:52:33.227Z,26.67
2022-12-12T02:57:34.963Z,28.45
2022-12-12T03:03:18.473Z,29.85
2022-12-12T03:08:44.700Z,30.75
2022-12-12T03:14:03.256Z,29.73
2022-12-12T03:19:16.181Z,26.73
2022-12-12T03:24:31.002Z,27.50
2022-12-12T03:29:55.539Z,26.50
2022-12-12T03:35:02.971Z,27.52
2022-12-12T03:40:12.796Z,32.75
2022-12-12T03:45:20.979Z,30.42
2022-12-12T03:50:42.802Z,27.15
2022-12-12T03:55:53.711Z,28.85
2022-12-12T04:00:57.987Z,29.20
2022-12-12T04:06:28.998Z,26.77
2022-12-12T04:11:55.971Z,30.17
2022-12-12T04:17:03.267Z,27.50
2022-12-12T04:22:27.540Z,34.58
2022-12-12T04:27:35.422Z,26.67
2022-12-12T04:32:45.619Z,29.10
2022-12-12T04:37:57.399Z,24.90
2022-12-12T04:43:35.837Z,24.80
2022-12-12T04:48:43.657Z,26.45
2022-12-12T04:53:52.504Z,26.75
2022-12-12T04:58:54.272Z,26.52
2022-12-12T05:04:00.883Z,26.42
2022-12-12T05:09:03.201Z,28.15
2022-12-12T05:14:09.303Z,23.20
2022-12-12T05:19:11.015Z,25.55
2022-12-12T05:24:12.750Z,26.35
2022-12-12T05:29:14.563Z,24.77
2022-12-12T05:34:16.296Z,24.05
2022-12-12T05:39:17.998Z,26.33
2022-12-12T05:44:19.660Z,24.75
2022-12-12T05:49:21.494Z,22.33
2022-12-12T05:54:23.206Z,25.27
2022-12-12T05:59:24.952Z,23.88
2022-12-12T06:04:26.715Z,26.98
2022-12-12T06:09:28.546Z,25.98
2022-12-12T06:14:30.365Z,22.73
2022-12-12T06:19:32.072Z,24.05
2022-12-12T06:24:33.735Z,22.58
2022-12-12T06:29:35.485Z,24.77
2022-12-12T06:34:40.358Z,22.67
2022-12-12T06:39:42.194Z,20.55
2022-12-12T06:44:44.017Z,21.33
2022-12-12T06:49:45.703Z,26.20
2022-12-12T06:54:47.483Z,20.73
2022-12-12T06:59:51.059Z,23.90
2022-12-12T07:04:52.749Z,26.25
2022-12-12T07:09:54.487Z,24.90
2022-12-12T07:14:56.160Z,25.20
2022-12-12T07:19:57.887Z,28.90
2022-12-12T07:24:59.610Z,27.10
2022-12-12T07:30:01.323Z,24.95
2022-12-12T07:35:03.348Z,32.65
2022-12-12T07:40:05.510Z,41.83
2022-12-12T07:45:12.447Z,27.10
2022-12-12T07:50:16.736Z,25.80
2022-12-12T07:55:18.580Z,30.33
2022-12-12T08:00:20.701Z,35.17
2022-12-12T08:05:22.404Z,30.38
2022-12-12T08:10:24.193Z,27.90
2022-12-12T08:15:25.903Z,35.63
2022-12-12T08:20:27.665Z,35.03
2022-12-12T08:25:29.388Z,31.23
2022-12-12T08:30:31.065Z,34.80
2022-12-12T08:35:32.796Z,30.52
2022-12-12T08:40:36.128Z,30.02
2022-12-12T08:45:38.880Z,34.42
2022-12-12T08:50:41.332Z,28.67
2022-12-12T08:55:43.024Z,32.42
2022-12-12T09:00:44.756Z,32.10
2022-12-12T09:05:46.813Z,33.58
2022-12-12T09:10:50.530Z,32.17
2022-12-12T09:15:53.038Z,31.73
2022-12-12T09:20:56.734Z,31.48
2022-12-12T09:25:58.841Z,34.92
2022-12-12T09:31:00.996Z,31.90
2022-12-12T09:36:05.711Z,29.20
2022-12-12T09:41:10.182Z,25.92
2022-12-12T09:46:29.963Z,27.42
2022-12-12T09:51:31.761Z,30.58
2022-12-12T09:56:48.609Z,29.25
2022-12-12T10:02:05.584Z,28.15
2022-12-12T10:07:12.179Z,29.42
2022-12-12T10:12:16.949Z,25.90
2022-12-12T10:17:34.316Z,25.60
2022-12-12T10:22:51.621Z,24.95
2022-12-12T10:28:09.892Z,30.13
2022-12-12T10:33:20.102Z,24.58
2022-12-12T10:38:53.952Z,23.88
2022-12-12T10:44:09.693Z,25.50
2022-12-12T10:49:18.399Z,21.85
2022-12-12T10:54:23.004Z,22.88
2022-12-12T10:59:24.680Z,28.13
2022-12-12T11:04:31.290Z,23.45
2022-12-12T11:09:33.060Z,24.38
2022-12-12T11:14:49.361Z,28.67
2022-12-12T11:19:52.769Z,24.35
2022-12-12T11:24:54.960Z,24.50
2022-12-12T11:30:04.749Z,21.40
2022-12-12T11:35:27.028Z,24.73
2022-12-12T11:40:35.577Z,26.10
2022-12-12T11:45:37.347Z,26.48
2022-12-12T11:50:46.163Z,27.90
2022-12-12T11:56:25.194Z,27.90
2022-12-12T12:01:46.099Z,26.52
2022-12-12T12:07:12.641Z,27.27
2022-12-12T12:12:39.483Z,25.98
2022-12-12T12:17:47.307Z,24.23
2022-12-12T12:23:13.990Z,26.73
2022-12-12T12:28:57.956Z,26.50
2022-12-12T12:34:21.925Z,24.13
2022-12-12T12:39:38.644Z,27.60
2022-12-12T12:44:47.740Z,29.40
2022-12-12T12:49:58.933Z,23.15
2022-12-12T12:55:02.558Z,25.52
2022-12-12T13:00:09.931Z,27.75
2022-12-12T13:05:31.109Z,25.40
2022-12-12T13:10:33.591Z,22.95
2022-12-12T13:15:41.856Z,26.85
2022-12-12T13:20:49.990Z,27.98
2022-12-12T13:26:17.378Z,25.35
2022-12-12T13:31:35.696Z,23.83
2022-12-12T13:36:45.623Z,26.92
2022-12-12T13:42:01.190Z,29.20
2022-12-12T13:47:04.871Z,31.15
2022-12-12T13:52:31.469Z,28.75
2022-12-12T13:57:33.441Z,29.15
2022-12-12T14:02:44.191Z,25.25
2022-12-12T14:07:51.862Z,27.65
2022-12-12T14:12:54.911Z,24.10
2022-12-12T14:18:01.002Z,22.38
2022-12-12T14:23:07.558Z,25.52
2022-12-12T14:28:21.552Z,30.85
2022-12-12T14:33:43.605Z,30.90
2022-12-12T14:38:55.548Z,29.35
2022-12-12T14:44:37.600Z,28.42
2022-12-12T14:49:22.850Z,28.38
2022-12-12T14:54:25.182Z,25.30
2022-12-12T14:59:32.673Z,26.77
2022-12-12T15:04:39.670Z,29.73
2022-12-12T15:09:48.687Z,32.20
2022-12-12T15:14:51.661Z,32.05
2022-12-12T15:20:02.181Z,31.65
2022-12-12T15:25:16.160Z,29.77
2022-12-12T15:30:37.495Z,36.55
2022-12-12T15:35:39.311Z,30.50
2022-12-12T15:40:43.016Z,27.70
2022-12-12T15:45:53.110Z,30.25
2022-12-12T15:51:03.146Z,27.27
2022-12-12T15:56:07.704Z,28.60
2022-12-12T16:01:22.479Z,31.55
2022-12-12T16:06:33.125Z,26.70
2022-12-12T16:11:47.484Z,29.83
2022-12-12T16:16:58.628Z,27.27
2022-12-12T16:22:35.781Z,25.08
2022-12-12T16:27:37.511Z,29.33
2022-12-12T16:32:39.260Z,29.00
2022-12-12T16:37:40.969Z,32.65
2022-12-12T16:42:45.511Z,29.70
2022-12-12T16:47:47.187Z,28.75
2022-12-12T16:52:48.848Z,27.23
2022-12-12T16:57:50.759Z,33.63
2022-12-12T17:02:52.477Z,26.88
2022-12-12T17:07:54.862Z,21.80
2022-12-12T17:12:56.665Z,32.63
2022-12-12T17:17:58.981Z,24.80
2022-12-12T17:28:20.701Z,23.35
2022-12-12T17:33:22.369Z,23.73
2022-12-12T17:38:24.041Z,26.00
2022-12-12T17:43:25.927Z,23.40
2022-12-12T17:48:29.963Z,28.83
2022-12-12T17:53:36.565Z,23.48
2022-12-12T17:58:40.934Z,25.80
2022-12-12T18:03:43.966Z,24.95
2022-12-12T18:08:45.935Z,23.95
2022-12-12T18:13:50.344Z,26.35
2022-12-12T18:18:52.988Z,26.95
2022-12-12T18:23:54.713Z,26.80
2022-12-12T18:28:59.694Z,26.35
2022-12-12T18:34:01.729Z,26.98
2022-12-12T18:39:05.162Z,24.05
2022-12-12T18:44:08.912Z,27.75
2022-12-12T18:49:15.739Z,22.90
2022-12-12T18:54:21.307Z,22.17
2022-12-12T18:59:23.051Z,26.63
2022-12-12T19:04:25.029Z,25.35
2022-12-12T19:09:26.766Z,24.75
2022-12-12T19:14:40.415Z,24.90
2022-12-12T19:19:50.765Z,26.65
2022-12-12T19:24:52.464Z,26.02
2022-12-12T19:29:54.143Z,28.95
2022-12-12T19:34:55.778Z,27.70
2022-12-12T19:39:57.487Z,29.92
2022-12-12T19:44:59.303Z,27.63
2022-12-12T19:50:01.084Z,25.83
2022-12-12T19:55:02.977Z,26.20
2022-12-12T20:00:05.270Z,26.35
2022-12-12T20:05:07.068Z,31.58
2022-12-12T20:10:09.176Z,27.70
2022-12-12T20:15:11.302Z,25.80
2022-12-12T20:20:13.321Z,26.20
2022-12-12T20:25:15.349Z,26.98
2022-12-12T20:30:17.714Z,24.40
2022-12-12T20:35:19.455Z,24.10
2022-12-12T20:40:21.265Z,22.27
2022-12-12T20:45:23.300Z,23.33
2022-12-12T20:50:25.021Z,24.42
2022-12-12T20:55:27.037Z,20.15
2022-12-12T21:00:29.832Z,24.27
2022-12-12T21:05:31.536Z,20.48
2022-12-12T21:10:33.699Z,24.73
2022-12-12T21:15:36.847Z,20.38
2022-12-12T21:20:43.199Z,20.85
2022-12-12T21:25:44.898Z,16.92
2022-12-12T21:30:46.599Z,12.38
2022-12-12T21:35:48.479Z,17.92
2022-12-12T21:40:50.191Z,13.20
2022-12-12T21:45:51.856Z,13.38
2022-12-12T21:50:55.197Z,16.92
2022-12-12T21:56:13.333Z,16.10
2022-12-12T22:01:20.583Z,19.48
2022-12-12T22:06:26.992Z,22.65
2022-12-12T22:11:34.380Z,22.40
2022-12-12T22:16:49.849Z,21.80
2022-12-12T22:21:51.514Z,23.90
2022-12-12T22:26:53.249Z,23.48
2022-12-12T22:31:54.957Z,26.70
2022-12-12T22:36:56.718Z,21.73
2022-12-12T22:41:58.374Z,28.00
2022-12-12T22:47:00.216Z,23.23
2022-12-12T22:52:01.932Z,26.30
2022-12-12T22:57:03.721Z,28.35
2022-12-12T23:02:05.480Z,24.70
2022-12-12T23:07:07.316Z,27.13
2022-12-12T23:12:08.984Z,32.57
2022-12-12T23:17:10.656Z,29.80
2022-12-12T23:22:12.342Z,31.98
2022-12-12T23:27:14.086Z,32.27
2022-12-12T23:32:15.742Z,28.93
2022-12-12T23:37:17.455Z,31.73
2022-12-12T23:42:19.134Z,31.30
2022-12-12T23:47:20.788Z,30.10
2022-12-12T23:52:22.480Z,25.80
2022-12-12T23:57:24.142Z,29.63
